Terminal Aerodrome Forecast
Issued by NWS

Home | Current Version | Previous Version | Graphics & Text | Print | Product List | Glossary On
Versions: 1 2 3 4 5 6 7 8 9 10 11 12 13 14 15 16 17 18 19 20 21 22 23 24 25 26 27 28 29 30 31 32 33 34 35 36 37 38
000
FTUS43 KLOT 051738
TAFDPA
TAF
KDPA 051738Z 0518/0618 06010KT 2SM BR OVC003
     FM052000 06011KT 4SM BR BKN006 OVC012
     FM060200 04007KT 3SM BR OVC004
     FM060600 VRB04KT 3/4SM BR OVC004
     FM061500 17005KT 5SM BR SCT020 BKN040=

USA.gov is the U.S. government's official web portal to all federal, state and local government web resources and services.